createdAt,value
2019-04-14T00:01:41.296Z,11.27
2019-04-14T00:04:14.188Z,9.87
2019-04-14T00:06:46.170Z,10.57
2019-04-14T00:09:16.119Z,13.73
2019-04-14T00:11:45.824Z,14.60
2019-04-14T00:14:16.382Z,16.10
2019-04-14T00:16:44.601Z,17.80
2019-04-14T00:19:19.841Z,15.57
2019-04-14T00:21:47.632Z,13.73
2019-04-14T00:24:16.272Z,15.00
2019-04-14T00:26:44.512Z,15.93
2019-04-14T00:29:19.515Z,12.23
2019-04-14T00:31:47.932Z,16.30
2019-04-14T00:34:44.761Z,15.17
2019-04-14T00:37:20.481Z,18.60
2019-04-14T00:39:51.153Z,13.90
2019-04-14T00:42:25.663Z,16.13
2019-04-14T00:44:56.038Z,12.50
2019-04-14T00:47:28.938Z,14.53
2019-04-14T00:49:57.282Z,15.70
2019-04-14T00:52:25.492Z,17.60
2019-04-14T00:54:52.965Z,16.13
2019-04-14T00:57:20.342Z,16.97
2019-04-14T00:59:48.742Z,20.00
2019-04-14T01:02:16.674Z,18.73
2019-04-14T01:04:44.795Z,15.17
2019-04-14T01:07:13.069Z,17.00
2019-04-14T01:09:41.214Z,15.10
2019-04-14T01:12:08.900Z,16.50
2019-04-14T01:14:36.612Z,19.17
2019-04-14T01:17:07.032Z,15.67
2019-04-14T01:19:37.398Z,19.60
2019-04-14T01:22:05.346Z,17.17
2019-04-14T01:24:33.667Z,21.03
2019-04-14T01:27:04.051Z,17.57
2019-04-14T01:29:31.999Z,15.30
2019-04-14T01:32:00.145Z,18.47
2019-04-14T01:34:28.169Z,17.60
2019-04-14T01:36:56.111Z,19.37
2019-04-14T01:39:28.527Z,17.73
2019-04-14T01:41:56.487Z,21.23
2019-04-14T01:44:24.252Z,23.77
2019-04-14T01:46:54.293Z,21.47
2019-04-14T01:49:22.540Z,18.60
2019-04-14T01:52:18.846Z,16.93
2019-04-14T01:54:58.266Z,22.73
2019-04-14T01:57:45.974Z,18.10
2019-04-14T02:00:40.181Z,17.97
2019-04-14T02:03:10.670Z,22.97
2019-04-14T02:05:38.544Z,20.20
2019-04-14T02:08:06.912Z,19.17
2019-04-14T02:10:34.745Z,23.67
2019-04-14T02:13:03.516Z,20.23
2019-04-14T02:15:30.953Z,23.70
2019-04-14T02:17:58.894Z,21.40
2019-04-14T02:20:27.256Z,22.43
2019-04-14T02:22:55.344Z,24.87
2019-04-14T02:25:23.114Z,24.13
2019-04-14T02:27:51.481Z,24.37
2019-04-14T02:30:22.959Z,20.97
2019-04-14T02:33:13.860Z,23.33
2019-04-14T02:35:44.843Z,29.07
2019-04-14T02:38:26.877Z,22.93
2019-04-14T02:40:55.900Z,24.97
2019-04-14T02:43:25.713Z,23.93
2019-04-14T02:48:27.522Z,28.50
2019-04-14T02:50:48.183Z,31.60
2019-04-14T02:55:57.597Z,24.67
2019-04-14T02:58:26.750Z,26.57
2019-04-14T03:00:58.316Z,23.23
2019-04-14T03:06:18.124Z,24.60
2019-04-14T03:08:25.660Z,22.03
2019-04-14T03:13:23.103Z,22.87
2019-04-14T03:16:15.788Z,26.50
2019-04-14T03:24:31.693Z,22.13
2019-04-14T03:27:22.712Z,23.77
2019-04-14T03:29:55.341Z,26.33
2019-04-14T03:37:45.322Z,27.17
2019-04-14T03:39:51.906Z,29.77
2019-04-14T03:42:31.697Z,28.40
2019-04-14T03:44:56.358Z,25.87
2019-04-14T03:47:25.766Z,26.90
2019-04-14T03:50:00.299Z,27.93
2019-04-14T03:52:31.963Z,26.10
2019-04-14T03:54:51.025Z,25.50
2019-04-14T03:57:04.225Z,27.73
2019-04-14T03:59:32.338Z,30.67
2019-04-14T04:02:00.858Z,27.53
2019-04-14T04:04:31.597Z,30.77
2019-04-14T04:06:59.642Z,32.97
2019-04-14T04:09:47.510Z,27.13
2019-04-14T04:12:18.173Z,23.77
2019-04-14T04:14:46.409Z,28.57
2019-04-14T04:17:39.222Z,29.00
2019-04-14T04:20:26.671Z,27.00
2019-04-14T04:23:22.809Z,26.23
2019-04-14T04:26:08.624Z,29.13
2019-04-14T04:28:56.494Z,28.80
2019-04-14T04:31:32.830Z,29.87
2019-04-14T04:34:22.713Z,26.20
2019-04-14T04:37:00.248Z,34.47
2019-04-14T04:39:36.073Z,27.67
2019-04-14T04:42:03.313Z,28.63
2019-04-14T04:44:31.331Z,29.97
2019-04-14T04:46:59.144Z,34.70
2019-04-14T04:49:29.297Z,37.17
2019-04-14T04:51:57.307Z,30.03
2019-04-14T04:54:25.695Z,27.07
2019-04-14T04:56:53.797Z,31.00
2019-04-14T04:59:21.335Z,30.57
2019-04-14T05:01:49.444Z,32.57
2019-04-14T05:04:19.998Z,29.03
2019-04-14T05:06:59.286Z,35.23
2019-04-14T05:09:46.851Z,32.13
2019-04-14T05:12:36.881Z,33.87
2019-04-14T05:15:24.992Z,30.93
2019-04-14T05:17:53.772Z,31.83
2019-04-14T05:20:22.725Z,31.90
2019-04-14T05:22:52.930Z,29.00
2019-04-14T05:25:21.663Z,27.13
2019-04-14T05:27:49.475Z,28.97
2019-04-14T05:30:17.568Z,32.30
2019-04-14T05:32:45.521Z,30.33
2019-04-14T05:35:16.240Z,31.20
2019-04-14T05:37:46.525Z,29.67
2019-04-14T05:40:14.550Z,29.07
2019-04-14T05:42:42.725Z,32.87
2019-04-14T05:45:11.156Z,34.30
2019-04-14T05:47:41.837Z,34.00
2019-04-14T05:50:09.576Z,35.10
2019-04-14T05:52:38.169Z,30.90
2019-04-14T05:55:06.614Z,34.40
2019-04-14T05:57:35.125Z,29.90
2019-04-14T06:00:08.169Z,33.27
2019-04-14T06:02:39.819Z,29.47
2019-04-14T06:05:13.029Z,30.87
2019-04-14T06:07:40.763Z,31.63
2019-04-14T06:10:10.491Z,32.77
2019-04-14T06:12:37.831Z,29.83
2019-04-14T06:15:09.316Z,28.57
2019-04-14T06:17:38.723Z,25.80
2019-04-14T06:20:09.696Z,34.53
2019-04-14T06:22:37.016Z,34.30
2019-04-14T06:25:06.009Z,32.87
2019-04-14T06:27:34.450Z,34.93
2019-04-14T06:30:19.097Z,30.63
2019-04-14T06:32:48.698Z,32.67
2019-04-14T06:35:33.133Z,32.30
2019-04-14T06:38:05.734Z,28.77
2019-04-14T06:40:40.456Z,31.43
2019-04-14T06:43:07.787Z,34.07
2019-04-14T06:45:35.199Z,37.63
2019-04-14T06:48:04.317Z,37.77
2019-04-14T06:50:32.031Z,37.10
2019-04-14T06:52:59.998Z,37.23
2019-04-14T06:55:27.590Z,32.00
2019-04-14T06:57:57.921Z,38.97
2019-04-14T07:00:28.101Z,35.43
2019-04-14T07:03:00.505Z,35.33
2019-04-14T07:05:27.889Z,33.27
2019-04-14T07:07:57.337Z,32.60
2019-04-14T07:10:24.577Z,34.23
2019-04-14T07:12:52.258Z,36.30
2019-04-14T07:15:22.207Z,36.93
2019-04-14T07:17:57.658Z,35.33
2019-04-14T07:20:25.375Z,34.90
2019-04-14T07:22:53.249Z,33.83
2019-04-14T07:25:23.518Z,38.63
2019-04-14T07:27:50.933Z,34.37
2019-04-14T07:30:36.470Z,37.13
2019-04-14T07:33:10.644Z,34.07
2019-04-14T07:36:15.761Z,34.40
2019-04-14T07:38:48.991Z,33.20
2019-04-14T07:41:23.254Z,35.93
2019-04-14T07:43:58.317Z,33.63
2019-04-14T07:46:55.388Z,35.60
2019-04-14T07:49:41.970Z,35.27
2019-04-14T07:52:49.548Z,34.80
2019-04-14T07:55:34.026Z,33.97
2019-04-14T07:58:06.775Z,37.20
2019-04-14T08:00:38.059Z,31.47
2019-04-14T08:03:13.122Z,36.93
2019-04-14T08:05:41.029Z,34.47
2019-04-14T08:08:08.493Z,34.00
2019-04-14T08:10:35.988Z,32.13
2019-04-14T08:13:06.599Z,32.07
2019-04-14T08:15:42.038Z,40.73
2019-04-14T08:18:12.127Z,37.23
2019-04-14T08:20:39.691Z,37.80
2019-04-14T08:23:07.100Z,40.73
2019-04-14T08:25:38.692Z,38.50
2019-04-14T08:28:06.130Z,42.17
2019-04-14T08:30:36.315Z,51.63
2019-04-14T08:33:08.970Z,52.60
2019-04-14T08:35:36.644Z,51.10
2019-04-14T08:38:07.250Z,49.53
2019-04-14T08:40:34.705Z,55.07
2019-04-14T08:43:18.716Z,53.40
2019-04-14T08:46:08.772Z,57.87
2019-04-14T08:49:04.551Z,57.00
2019-04-14T08:51:54.283Z,47.87
2019-04-14T08:54:26.204Z,44.97
2019-04-14T08:57:14.509Z,47.07
2019-04-14T08:59:59.031Z,49.43
2019-04-14T09:02:33.035Z,53.70
2019-04-14T09:05:16.329Z,48.83
2019-04-14T09:07:48.766Z,47.93
2019-04-14T09:10:22.331Z,52.33
2019-04-14T09:12:53.134Z,51.90
2019-04-14T09:15:20.602Z,49.40
2019-04-14T09:17:48.366Z,49.23
2019-04-14T09:20:17.131Z,45.53
2019-04-14T09:22:44.872Z,44.63
2019-04-14T09:25:14.720Z,45.97
2019-04-14T09:27:42.077Z,43.77
2019-04-14T09:30:12.505Z,48.07
2019-04-14T09:32:39.985Z,39.90
2019-04-14T09:35:07.517Z,42.27
2019-04-14T09:37:35.422Z,45.77
2019-04-14T09:40:05.631Z,46.73
2019-04-14T09:42:34.355Z,42.60
2019-04-14T09:45:04.342Z,38.53
2019-04-14T09:47:32.059Z,38.27
2019-04-14T09:49:59.843Z,39.77
2019-04-14T09:52:27.243Z,40.00
2019-04-14T09:54:54.689Z,40.20
2019-04-14T09:57:22.341Z,50.40
2019-04-14T09:59:50.156Z,46.70
2019-04-14T10:02:19.677Z,42.23
2019-04-14T10:04:47.250Z,41.77
2019-04-14T10:07:14.751Z,42.33
2019-04-14T10:09:54.277Z,36.57
2019-04-14T10:12:21.632Z,33.77
2019-04-14T10:14:49.261Z,37.93
2019-04-14T10:17:18.514Z,34.03
2019-04-14T10:19:50.694Z,32.03
2019-04-14T10:22:18.239Z,31.90
2019-04-14T10:24:45.907Z,33.60
2019-04-14T10:27:14.572Z,31.80
2019-04-14T10:29:41.993Z,27.87
2019-04-14T10:32:09.384Z,29.60
2019-04-14T10:34:42.611Z,26.17
2019-04-14T10:37:10.047Z,29.23
2019-04-14T10:39:37.431Z,26.67
2019-04-14T10:42:06.380Z,27.13
2019-04-14T10:44:35.211Z,29.63
2019-04-14T10:47:03.264Z,30.43
2019-04-14T10:49:30.733Z,29.83
2019-04-14T10:52:00.996Z,29.40
2019-04-14T10:54:28.928Z,28.30
2019-04-14T10:57:01.403Z,28.40
2019-04-14T10:59:30.219Z,26.77
2019-04-14T11:01:58.101Z,29.47
2019-04-14T11:04:26.745Z,30.70
2019-04-14T11:07:17.661Z,30.50
2019-04-14T11:09:45.150Z,33.93
2019-04-14T11:12:12.560Z,33.90
2019-04-14T11:14:41.963Z,30.23
2019-04-14T11:17:09.307Z,31.20
2019-04-14T11:19:38.785Z,32.47
2019-04-14T11:22:09.104Z,31.37
2019-04-14T11:24:38.497Z,35.97
2019-04-14T11:27:06.025Z,30.27
2019-04-14T11:29:33.575Z,32.13
2019-04-14T11:32:19.217Z,32.73
2019-04-14T11:35:26.426Z,28.80
2019-04-14T11:38:03.296Z,27.17
2019-04-14T11:40:37.025Z,32.33
2019-04-14T11:43:04.569Z,29.67
2019-04-14T11:45:32.056Z,26.50
2019-04-14T11:48:02.081Z,27.77
2019-04-14T11:50:31.729Z,28.20
2019-04-14T11:53:00.782Z,27.07
2019-04-14T11:55:29.720Z,25.17
2019-04-14T11:58:01.632Z,25.63
2019-04-14T12:00:45.036Z,25.67
2019-04-14T12:03:23.239Z,25.23
2019-04-14T12:06:13.030Z,26.93
2019-04-14T12:08:50.521Z,26.70
2019-04-14T12:11:19.596Z,22.90
2019-04-14T12:13:47.411Z,23.73
2019-04-14T12:16:14.854Z,23.60
2019-04-14T12:18:42.278Z,26.67
2019-04-14T12:21:09.977Z,23.40
2019-04-14T12:23:37.530Z,26.63
2019-04-14T12:26:05.959Z,23.40
2019-04-14T12:28:33.916Z,22.17
2019-04-14T12:31:04.079Z,23.13
2019-04-14T12:33:31.804Z,23.00
2019-04-14T12:36:02.052Z,24.97
2019-04-14T12:38:29.510Z,28.67
2019-04-14T12:40:58.871Z,24.70
2019-04-14T12:43:44.325Z,29.30
2019-04-14T12:46:43.418Z,28.70
2019-04-14T12:49:23.206Z,25.53
2019-04-14T12:52:20.565Z,21.33
2019-04-14T12:54:41.239Z,28.40
2019-04-14T12:57:08.661Z,24.80
2019-04-14T12:59:36.818Z,26.13
2019-04-14T13:02:20.026Z,25.97
2019-04-14T13:04:47.509Z,26.10
2019-04-14T13:07:15.059Z,27.97
2019-04-14T13:09:44.041Z,30.47
2019-04-14T13:12:12.100Z,25.30
2019-04-14T13:14:42.330Z,25.00
2019-04-14T13:17:09.815Z,26.07
2019-04-14T13:19:37.246Z,21.13
2019-04-14T13:22:04.860Z,29.37
2019-04-14T13:24:32.855Z,24.97
2019-04-14T13:27:00.580Z,25.00
2019-04-14T13:29:28.361Z,25.77
2019-04-14T13:31:55.884Z,24.20
2019-04-14T13:34:23.406Z,28.03
2019-04-14T13:36:53.872Z,24.73
2019-04-14T13:39:21.363Z,24.20
2019-04-14T13:41:48.819Z,22.13
2019-04-14T13:44:16.265Z,23.03
2019-04-14T13:46:43.711Z,25.80
2019-04-14T13:49:12.514Z,20.60
2019-04-14T13:51:40.042Z,22.93
2019-04-14T13:54:07.784Z,27.60
2019-04-14T13:56:35.366Z,21.70
2019-04-14T13:59:03.098Z,22.17
2019-04-14T14:01:30.493Z,25.05
2019-04-14T14:03:57.858Z,22.40
2019-04-14T14:06:25.289Z,21.83
2019-04-14T14:08:53.298Z,24.73
2019-04-14T14:11:32.244Z,22.40
2019-04-14T14:14:30.015Z,24.47
2019-04-14T14:17:15.491Z,20.87
2019-04-14T14:20:05.107Z,22.17
2019-04-14T14:22:41.537Z,22.07
2019-04-14T14:25:16.300Z,22.50
2019-04-14T14:27:43.758Z,21.23
2019-04-14T14:30:13.532Z,21.73
2019-04-14T14:32:41.222Z,20.00
2019-04-14T14:35:08.630Z,26.03
2019-04-14T14:37:36.385Z,22.77
2019-04-14T14:40:06.705Z,21.97
2019-04-14T14:42:36.719Z,22.03
2019-04-14T14:45:19.908Z,24.13
2019-04-14T14:48:12.193Z,21.43
2019-04-14T14:50:48.721Z,20.97
2019-04-14T14:53:19.149Z,18.23
2019-04-14T14:55:46.487Z,22.90
2019-04-14T14:58:20.000Z,19.67
2019-04-14T15:00:43.130Z,20.77
2019-04-14T15:03:12.752Z,20.87
2019-04-14T15:05:40.076Z,20.50
2019-04-14T15:08:07.746Z,18.87
2019-04-14T15:10:35.943Z,20.03
2019-04-14T15:13:03.331Z,22.63
2019-04-14T15:15:30.986Z,21.53
2019-04-14T15:17:58.407Z,20.33
2019-04-14T15:20:25.836Z,18.47
2019-04-14T15:22:53.305Z,16.07
2019-04-14T15:25:20.869Z,18.40
2019-04-14T15:27:48.331Z,18.03
2019-04-14T15:30:18.481Z,21.83
2019-04-14T15:32:46.171Z,20.30
2019-04-14T15:35:13.753Z,23.20
2019-04-14T15:37:41.163Z,17.40
2019-04-14T15:40:08.843Z,20.80
2019-04-14T15:42:38.484Z,22.17
2019-04-14T15:45:06.203Z,17.63
2019-04-14T15:47:33.697Z,18.73
2019-04-14T15:50:03.196Z,19.40
2019-04-14T15:52:34.383Z,17.23
2019-04-14T15:55:01.891Z,16.50
2019-04-14T15:57:57.693Z,18.40
2019-04-14T16:00:50.631Z,17.77
2019-04-14T16:03:26.217Z,17.30
2019-04-14T16:06:28.086Z,15.40
2019-04-14T16:09:11.684Z,19.13
2019-04-14T16:12:08.856Z,17.07
2019-04-14T16:14:58.791Z,17.20
2019-04-14T16:17:57.584Z,17.00
2019-04-14T16:20:30.549Z,16.13
2019-04-14T16:22:58.304Z,15.67
2019-04-14T16:25:39.407Z,15.93
2019-04-14T16:28:12.371Z,17.23
2019-04-14T16:30:57.863Z,17.17
2019-04-14T16:33:35.893Z,15.80
2019-04-14T16:36:11.983Z,15.73
2019-04-14T16:38:39.743Z,17.37
2019-04-14T16:41:07.481Z,15.30
2019-04-14T16:43:35.174Z,17.03
2019-04-14T16:46:02.643Z,16.70
2019-04-14T16:48:30.205Z,17.20
2019-04-14T16:50:59.794Z,16.67
2019-04-14T16:53:32.813Z,17.80
2019-04-14T16:56:15.554Z,14.40
2019-04-14T16:58:48.890Z,17.60
2019-04-14T17:01:26.136Z,17.10
2019-04-14T17:03:54.056Z,16.17
2019-04-14T17:06:21.938Z,16.60
2019-04-14T17:08:49.958Z,13.93
2019-04-14T17:11:25.916Z,15.97
2019-04-14T17:13:59.876Z,18.33
2019-04-14T17:16:55.590Z,13.83
2019-04-14T17:19:30.784Z,17.90
2019-04-14T17:22:11.938Z,17.63
2019-04-14T17:25:04.925Z,15.73
2019-04-14T17:27:55.111Z,17.50
2019-04-14T17:30:33.363Z,15.87
2019-04-14T17:33:15.552Z,14.43
2019-04-14T17:36:00.732Z,22.97
2019-04-14T17:38:43.139Z,15.17
2019-04-14T17:41:30.014Z,16.50
2019-04-14T17:44:28.761Z,15.27
2019-04-14T17:47:05.242Z,16.67
2019-04-14T17:49:47.722Z,16.03
2019-04-14T17:52:36.007Z,13.90
2019-04-14T17:55:11.490Z,14.80
2019-04-14T17:57:56.770Z,16.60
2019-04-14T18:00:52.726Z,15.33
2019-04-14T18:03:39.886Z,15.33
2019-04-14T18:06:30.414Z,19.33
2019-04-14T18:09:15.897Z,14.97
2019-04-14T18:15:34.045Z,16.33
2019-04-14T18:18:21.793Z,13.27
2019-04-14T18:20:57.045Z,14.50
2019-04-14T18:23:25.107Z,15.67
2019-04-14T18:25:52.879Z,15.73
2019-04-14T18:28:38.422Z,12.03
2019-04-14T18:31:14.275Z,16.10
2019-04-14T18:34:00.140Z,14.33
2019-04-14T18:36:37.878Z,12.53
2019-04-14T18:39:26.679Z,16.73
2019-04-14T18:42:23.014Z,19.20
2019-04-14T18:45:08.860Z,18.90
2019-04-14T18:47:46.105Z,19.80
2019-04-14T18:50:19.052Z,19.70
2019-04-14T18:53:02.314Z,17.33
2019-04-14T18:55:41.613Z,20.37
2019-04-14T18:58:24.210Z,13.63
2019-04-14T19:00:54.891Z,14.33
2019-04-14T19:03:22.642Z,18.00
2019-04-14T19:05:50.082Z,13.30
2019-04-14T19:08:17.511Z,16.53
2019-04-14T19:10:49.537Z,18.87
2019-04-14T19:13:29.672Z,15.97
2019-04-14T19:16:16.699Z,16.20
2019-04-14T19:18:47.106Z,15.17
2019-04-14T19:21:17.182Z,16.83
2019-04-14T19:23:46.479Z,24.00
2019-04-14T19:26:14.318Z,14.47
2019-04-14T19:28:42.258Z,12.30
2019-04-14T19:31:09.687Z,18.30
2019-04-14T19:33:37.661Z,16.57
2019-04-14T19:36:05.330Z,17.00
2019-04-14T19:38:32.749Z,21.60
2019-04-14T19:41:00.227Z,19.07
2019-04-14T19:43:27.693Z,16.17
2019-04-14T19:45:56.641Z,15.50
2019-04-14T19:48:24.226Z,17.27
2019-04-14T19:50:51.690Z,17.67
2019-04-14T19:53:19.507Z,14.80
2019-04-14T19:55:46.973Z,16.67
2019-04-14T19:58:14.422Z,20.90
2019-04-14T20:00:42.392Z,19.80
2019-04-14T20:03:10.834Z,18.63
2019-04-14T20:05:38.198Z,17.07
2019-04-14T20:08:05.965Z,17.57
2019-04-14T20:10:34.174Z,13.20
2019-04-14T20:13:01.718Z,21.93
2019-04-14T20:15:32.922Z,20.33
2019-04-14T20:18:23.046Z,20.40
2019-04-14T20:21:22.582Z,16.83
2019-04-14T20:23:55.358Z,16.33
2019-04-14T20:26:39.997Z,18.50
2019-04-14T20:29:13.364Z,19.60
2019-04-14T20:31:50.162Z,14.50
2019-04-14T20:34:19.695Z,15.57
2019-04-14T20:36:47.150Z,17.10
2019-04-14T20:39:15.029Z,15.93
2019-04-14T20:41:43.070Z,20.40
2019-04-14T20:44:10.999Z,21.33
2019-04-14T20:46:38.745Z,15.50
2019-04-14T20:49:06.383Z,16.23
2019-04-14T20:51:34.417Z,13.97
2019-04-14T20:54:02.259Z,17.20
2019-04-14T20:56:29.815Z,15.57
2019-04-14T20:58:57.229Z,16.33
2019-04-14T21:01:26.389Z,20.20
2019-04-14T21:04:19.350Z,19.13
2019-04-14T21:07:06.626Z,19.53
2019-04-14T21:09:39.693Z,15.03
2019-04-14T21:12:17.891Z,14.87
2019-04-14T21:15:14.833Z,16.33
2019-04-14T21:17:56.836Z,16.20
2019-04-14T21:20:32.600Z,17.40
2019-04-14T21:23:23.979Z,16.97
2019-04-14T21:26:07.093Z,16.50
2019-04-14T21:28:56.906Z,18.93
2019-04-14T21:31:28.371Z,19.80
2019-04-14T21:34:15.726Z,16.73
2019-04-14T21:37:02.610Z,18.00
2019-04-14T21:39:33.993Z,18.20
2019-04-14T21:42:01.954Z,15.93
2019-04-14T21:44:29.510Z,18.60
2019-04-14T21:46:57.428Z,17.07
2019-04-14T21:49:24.806Z,15.67
2019-04-14T21:52:02.907Z,20.00
2019-04-14T21:54:30.612Z,20.37
2019-04-14T21:57:16.931Z,16.53
2019-04-14T22:00:06.195Z,23.37
2019-04-14T22:02:51.594Z,20.53
2019-04-14T22:05:27.801Z,19.80
2019-04-14T22:08:05.618Z,18.37
2019-04-14T22:10:36.351Z,19.07
2019-04-14T22:13:04.237Z,19.23
2019-04-14T22:15:31.618Z,21.10
2019-04-14T22:18:07.891Z,16.60
2019-04-14T22:20:35.476Z,20.90
2019-04-14T22:23:04.620Z,24.17
2019-04-14T22:25:32.073Z,19.33
2019-04-14T22:27:59.838Z,16.27
2019-04-14T22:30:27.159Z,18.20
2019-04-14T22:32:54.611Z,17.10
2019-04-14T22:35:24.094Z,18.53
2019-04-14T22:37:51.516Z,17.80
2019-04-14T22:40:18.862Z,17.60
2019-04-14T22:42:46.313Z,17.80
2019-04-14T22:45:13.841Z,13.90
2019-04-14T22:47:41.434Z,18.23
2019-04-14T22:50:09.415Z,20.10
2019-04-14T22:52:42.420Z,20.17
2019-04-14T22:55:09.854Z,21.03
2019-04-14T22:57:37.341Z,17.60
2019-04-14T23:00:06.774Z,16.10
2019-04-14T23:02:45.811Z,17.30
2019-04-14T23:05:31.530Z,24.27
2019-04-14T23:08:14.098Z,18.07
2019-04-14T23:11:07.837Z,20.07
2019-04-14T23:13:41.880Z,20.90
2019-04-14T23:16:16.515Z,20.13
2019-04-14T23:18:53.182Z,21.57
2019-04-14T23:21:38.830Z,16.33
2019-04-14T23:24:12.111Z,21.47
2019-04-14T23:26:51.846Z,17.10
2019-04-14T23:29:08.908Z,18.70
2019-04-14T23:31:36.250Z,20.50
2019-04-14T23:34:03.796Z,15.80
2019-04-14T23:36:31.625Z,24.17
2019-04-14T23:38:59.014Z,17.03
2019-04-14T23:41:26.438Z,19.97
2019-04-14T23:43:53.867Z,17.17
2019-04-14T23:46:21.249Z,19.37
2019-04-14T23:48:48.975Z,17.60
2019-04-14T23:51:16.447Z,22.83
2019-04-14T23:53:44.128Z,18.57
2019-04-14T23:56:11.825Z,27.73
2019-04-14T23:58:39.676Z,21.40
